Brookings, OR

3:36 AM PDT on August 28, 2014 (GMT -0700)
Gardner Ridge | Change Station
CLOSE
Current Station
Personal Weather Station
Location: Brookings, OR
Elevation: 1365 ft
Nearby Weather Stations

Elev 1365 ft 42.11 °N, 124.21 °W | Updated 29 minutes ago

Clear
Clear
60.2 °F
Feels Like 60.2 °F
N
0.0
Wind Variable Wind from North
Gusts 1.0 mph

Today
High -- | Low -- °F
--% Chance of Precip.
Yesterday
High -- | Low -- °F
Precip. -- in
6:38 AM 7:57 PM
Waxing Crescent, 7% visible
Pressure 30.06 in
Visibility 10.0 miles
Clouds Clear
Dew Point 55 °F
Humidity 84%
Rainfall 0.00 in
Snow Depth Not available.
UV 0 out of 12
Pollen 6.30 out of 12
Air Quality Not available.
Flu Activity Not available.
METAR KBOK 280956Z AUTO 00000KT 10SM CLR 12/12 A3005 RMK AO2 T01160116 SLP177

More Conditions Fewer Conditions

Pressure 30.06 in
Visibility 10.0 miles
Clouds Clear
Dew Point 55 °F
Humidity 84%
Rainfall 0.00 in
Snow Depth Not available.
UV 0 out of 12
Pollen 6.30 out of 12
Air Quality Not available.
Flu Activity Not available.
METAR KBOK 280956Z AUTO 00000KT 10SM CLR 12/12 A3005 RMK AO2 T01160116 SLP177

More Conditions Fewer Conditions

10-Day Weather Forecast

Almanac

Astronomy

Aug. 28, 2014 Rise Set
Actual Time 6:38 AM PDT 7:57 PM PDT
Civil Twilight 6:09 AM PDT 8:26 PM PDT
Nautical Twilight 5:34 AM PDT 9:00 PM PDT
Astronomical Twilight 4:57 AM PDT 9:37 PM PDT
Moon 9:40 AM PDT 9:20 PM PDT
Length of Visible Light 14h 16m
Length of Day
13h 18m
Tomorrow will be 2m 40s shorter.
Waxing Crescent, 7% of the Moon is Illuminated
Today
Waxing Crescent
Sep 2
First Quarter
Sep 8
Full
Sep 15
Last Quarter
Sep 24
New

Today's Extremes

State Highs State Lows

Community

WunderPhotos

Upload Photos

1,747,921 photos uploaded!

Nearby

Snow Depth

Station Depth Elevation
Bigelow Camp 1 in 5120 ft
Fish Lake 0 in 4665 ft
Billie Creek Divide 0 in 5300 ft
Fourmile Lake 1 in 6000 ft
Cold Springs Camp 0 in 6100 ft

Earthquake Activity

City Distance Mag. Time & Date
Hayfork, California 129 miles 2.7 2:57 PM PDT
2014-08-25
Minimum magnitude displayed is 2.5.

Coastal Water Temperatures

Place Temperature
Port Orford, OR 54.0 °F
Crescent City, CA 60.1 °F
Charleston, OR 51.1 °F

Nearby Weather Stations